createdAt,value
2023-03-07T00:00:08.392Z,8.30
2023-03-07T00:02:56.658Z,7.20
2023-03-07T00:05:24.878Z,5.50
2023-03-07T00:07:52.995Z,4.40
2023-03-07T00:10:21.156Z,4.70
2023-03-07T00:12:49.315Z,3.50
2023-03-07T00:15:18.256Z,4.40
2023-03-07T00:17:46.579Z,5.50
2023-03-07T00:20:15.523Z,7.20
2023-03-07T00:22:44.413Z,7.70
2023-03-07T00:25:15.018Z,7.60
2023-03-07T00:27:43.546Z,7.50
2023-03-07T00:30:13.745Z,5.40
2023-03-07T00:32:42.029Z,6.40
2023-03-07T00:35:10.296Z,6.00
2023-03-07T00:37:38.761Z,7.00
2023-03-07T00:40:09.460Z,4.70
2023-03-07T00:42:37.625Z,3.20
2023-03-07T00:45:06.210Z,6.20
2023-03-07T00:47:34.404Z,6.20
2023-03-07T00:50:02.634Z,6.20
2023-03-07T00:52:30.787Z,8.70
2023-03-07T00:54:59.345Z,10.60
2023-03-07T00:57:27.475Z,14.60
2023-03-07T00:59:55.654Z,12.40
2023-03-07T01:02:24.129Z,14.10
2023-03-07T01:04:52.415Z,9.20
2023-03-07T01:07:20.786Z,5.70
2023-03-07T01:09:51.649Z,5.30
2023-03-07T01:12:20.259Z,6.00
2023-03-07T01:14:51.424Z,7.40
2023-03-07T01:17:19.797Z,6.50
2023-03-07T01:19:48.044Z,6.30
2023-03-07T01:22:16.537Z,8.40
2023-03-07T01:24:44.641Z,6.50
2023-03-07T01:27:12.975Z,7.50
2023-03-07T01:29:41.337Z,13.10
2023-03-07T01:32:10.167Z,12.30
2023-03-07T01:34:38.665Z,13.80
2023-03-07T01:37:06.932Z,9.60
2023-03-07T01:39:35.231Z,9.00
2023-03-07T01:42:09.075Z,12.70
2023-03-07T01:45:25.143Z,16.60
2023-03-07T01:47:53.295Z,15.70
2023-03-07T01:50:21.795Z,15.80
2023-03-07T01:52:53.734Z,15.30
2023-03-07T01:55:26.941Z,16.80
2023-03-07T01:58:11.330Z,16.90
2023-03-07T02:00:41.446Z,17.30
2023-03-07T02:03:26.321Z,14.20
2023-03-07T02:06:01.729Z,16.70
2023-03-07T02:08:32.875Z,12.40
2023-03-07T02:11:01.576Z,16.70
2023-03-07T02:13:29.852Z,10.10
2023-03-07T02:16:01.397Z,16.00
2023-03-07T02:18:33.898Z,14.70
2023-03-07T02:21:02.151Z,13.60
2023-03-07T02:23:42.504Z,12.20
2023-03-07T02:26:28.816Z,6.40
2023-03-07T02:28:58.777Z,6.20
2023-03-07T02:31:27.638Z,10.00
2023-03-07T02:33:56.053Z,8.70
2023-03-07T02:36:28.922Z,14.00
2023-03-07T02:39:22.299Z,10.10
2023-03-07T02:41:55.223Z,11.60
2023-03-07T02:44:32.726Z,13.30
2023-03-07T02:47:01.056Z,9.30
2023-03-07T02:49:29.869Z,8.50
2023-03-07T02:52:00.764Z,6.20
2023-03-07T02:54:29.783Z,6.60
2023-03-07T02:56:58.629Z,13.10
2023-03-07T02:59:27.150Z,10.30
2023-03-07T03:01:55.621Z,10.50
2023-03-07T03:04:24.273Z,9.90
2023-03-07T03:06:52.522Z,5.40
2023-03-07T03:09:21.749Z,6.40
2023-03-07T03:11:50.420Z,12.20
2023-03-07T03:14:19.615Z,12.10
2023-03-07T03:16:47.831Z,12.30
2023-03-07T03:19:16.775Z,12.60
2023-03-07T03:21:45.046Z,8.50
2023-03-07T03:24:13.230Z,13.50
2023-03-07T03:26:41.615Z,13.70
2023-03-07T03:29:10.203Z,10.90
2023-03-07T03:31:38.582Z,6.60
2023-03-07T03:34:07.124Z,7.20
2023-03-07T03:36:35.573Z,14.20
2023-03-07T03:39:11.025Z,15.50
2023-03-07T03:41:43.262Z,12.20
2023-03-07T03:44:11.731Z,12.90
2023-03-07T03:46:39.869Z,12.50
2023-03-07T03:49:08.118Z,14.20
2023-03-07T03:51:36.462Z,9.40
2023-03-07T03:54:05.004Z,14.50
2023-03-07T03:56:33.227Z,12.10
2023-03-07T03:59:01.284Z,12.70
2023-03-07T04:01:29.942Z,13.40
2023-03-07T04:03:59.610Z,20.60
2023-03-07T04:06:30.532Z,18.90
2023-03-07T04:08:59.535Z,29.10
2023-03-07T04:11:27.654Z,15.50
2023-03-07T04:13:56.260Z,11.00
2023-03-07T04:16:25.408Z,18.10
2023-03-07T04:18:54.078Z,12.90
2023-03-07T04:21:22.894Z,25.60
2023-03-07T04:23:56.013Z,17.50
2023-03-07T04:26:26.498Z,26.60
2023-03-07T04:28:54.765Z,13.30
2023-03-07T04:31:32.325Z,5.90
2023-03-07T04:34:02.638Z,6.70
2023-03-07T04:36:31.237Z,8.10
2023-03-07T04:38:59.342Z,16.60
2023-03-07T04:41:27.936Z,29.40
2023-03-07T04:44:03.360Z,30.00
2023-03-07T04:46:31.501Z,15.40
2023-03-07T04:48:59.734Z,18.30
2023-03-07T04:51:28.357Z,29.80
2023-03-07T04:53:56.585Z,17.80
2023-03-07T04:56:24.708Z,15.60
2023-03-07T04:58:52.942Z,15.00
2023-03-07T05:01:21.176Z,11.50
2023-03-07T05:03:49.943Z,11.80
2023-03-07T05:06:20.516Z,10.40
2023-03-07T05:08:51.148Z,18.60
2023-03-07T05:11:19.216Z,17.50
2023-03-07T05:13:47.621Z,10.00
2023-03-07T05:16:19.114Z,16.50
2023-03-07T05:18:47.497Z,11.90
2023-03-07T05:21:16.314Z,20.10
2023-03-07T05:23:44.389Z,19.50
2023-03-07T05:26:13.885Z,11.60
2023-03-07T05:28:42.487Z,19.50
2023-03-07T05:31:10.666Z,18.30
2023-03-07T05:33:42.655Z,18.20
2023-03-07T05:36:11.582Z,18.80
2023-03-07T05:38:40.332Z,17.60
2023-03-07T05:41:09.076Z,17.90
2023-03-07T05:43:37.518Z,22.90
2023-03-07T05:46:06.028Z,24.20
2023-03-07T05:48:34.257Z,21.90
2023-03-07T05:51:02.691Z,11.50
2023-03-07T05:53:32.026Z,5.80
2023-03-07T05:56:00.658Z,8.50
2023-03-07T05:58:29.503Z,5.40
2023-03-07T06:00:58.692Z,5.80
2023-03-07T06:03:26.955Z,15.50
2023-03-07T06:05:55.621Z,7.30
2023-03-07T06:08:24.022Z,9.80
2023-03-07T06:10:53.758Z,9.50
2023-03-07T06:13:23.835Z,20.90
2023-03-07T06:15:53.516Z,12.20
2023-03-07T06:18:23.029Z,18.60
2023-03-07T06:20:58.806Z,18.40
2023-03-07T06:23:30.442Z,14.90
2023-03-07T06:25:59.804Z,8.20
2023-03-07T06:28:29.566Z,11.80
2023-03-07T06:30:58.617Z,9.20
2023-03-07T06:33:27.070Z,13.30
2023-03-07T06:35:55.318Z,10.30
2023-03-07T06:38:24.147Z,20.10
2023-03-07T06:40:57.037Z,18.20
2023-03-07T06:43:25.229Z,18.20
2023-03-07T06:45:53.976Z,15.50
2023-03-07T06:48:23.217Z,21.30
2023-03-07T06:50:51.352Z,15.90
2023-03-07T06:53:20.444Z,16.70
2023-03-07T06:55:50.762Z,7.40
2023-03-07T06:58:19.209Z,16.10
2023-03-07T07:00:47.443Z,9.20
2023-03-07T07:03:16.725Z,19.80
2023-03-07T07:05:45.078Z,11.80
2023-03-07T07:08:13.434Z,12.90
2023-03-07T07:10:41.754Z,13.00
2023-03-07T07:13:12.677Z,23.50
2023-03-07T07:15:41.487Z,27.80
2023-03-07T07:18:13.732Z,29.90
2023-03-07T07:20:42.064Z,24.30
2023-03-07T07:23:10.663Z,22.40
2023-03-07T07:25:39.407Z,14.90
2023-03-07T07:28:07.766Z,21.50
2023-03-07T07:30:35.967Z,24.40
2023-03-07T07:33:04.475Z,26.40
2023-03-07T07:35:33.507Z,25.80
2023-03-07T07:38:02.071Z,21.60
2023-03-07T07:40:30.527Z,15.30
2023-03-07T07:42:59.163Z,23.10
2023-03-07T07:45:33.839Z,23.80
2023-03-07T07:48:01.990Z,30.30
2023-03-07T07:50:30.210Z,27.30
2023-03-07T07:52:58.484Z,21.40
2023-03-07T07:55:26.884Z,16.80
2023-03-07T07:57:56.266Z,18.40
2023-03-07T08:00:24.789Z,23.30
2023-03-07T08:02:53.210Z,27.20
2023-03-07T08:05:22.291Z,14.20
2023-03-07T08:07:50.586Z,14.60
2023-03-07T08:10:19.537Z,7.70
2023-03-07T08:12:51.666Z,11.80
2023-03-07T08:15:23.682Z,10.00
2023-03-07T08:17:52.654Z,10.40
2023-03-07T08:20:22.605Z,8.50
2023-03-07T08:22:51.651Z,8.50
2023-03-07T08:25:22.545Z,9.80
2023-03-07T08:27:55.394Z,9.10
2023-03-07T08:30:26.715Z,10.00
2023-03-07T08:32:56.835Z,9.50
2023-03-07T08:35:27.081Z,9.90
2023-03-07T08:38:00.702Z,9.00
2023-03-07T08:40:30.630Z,8.70
2023-03-07T08:42:59.852Z,7.60
2023-03-07T08:45:28.987Z,5.40
2023-03-07T08:47:57.984Z,7.00
2023-03-07T08:50:28.768Z,9.60
2023-03-07T08:52:57.928Z,7.60
2023-03-07T08:55:26.247Z,7.70
2023-03-07T08:57:54.340Z,9.70
2023-03-07T09:00:22.650Z,8.50
2023-03-07T09:02:50.801Z,6.90
2023-03-07T09:05:18.933Z,4.10
2023-03-07T09:07:47.123Z,7.80
2023-03-07T09:10:17.287Z,5.90
2023-03-07T09:12:45.518Z,5.80
2023-03-07T09:15:13.710Z,5.10
2023-03-07T09:17:41.780Z,4.90
2023-03-07T09:20:11.858Z,7.80
2023-03-07T09:22:40.011Z,5.90
2023-03-07T09:25:08.806Z,5.00
2023-03-07T09:27:36.979Z,4.60
2023-03-07T09:30:06.135Z,4.30
2023-03-07T09:32:34.333Z,7.50
2023-03-07T09:35:02.411Z,7.70
2023-03-07T09:37:30.575Z,5.10
2023-03-07T09:39:58.776Z,5.30
2023-03-07T09:42:51.378Z,5.70
2023-03-07T09:45:39.348Z,6.60
2023-03-07T09:48:24.882Z,6.60
2023-03-07T09:51:11.499Z,6.00
2023-03-07T09:53:48.246Z,5.00
2023-03-07T09:56:25.338Z,4.70
2023-03-07T09:59:36.022Z,7.50
2023-03-07T10:02:38.028Z,5.70
2023-03-07T10:05:08.813Z,5.20
2023-03-07T10:07:37.130Z,6.00
2023-03-07T10:10:12.845Z,5.00
2023-03-07T10:12:46.625Z,4.10
2023-03-07T10:15:42.684Z,4.80
2023-03-07T10:18:16.863Z,5.70
2023-03-07T10:21:12.710Z,15.70
2023-03-07T10:24:25.711Z,8.80
2023-03-07T10:27:08.129Z,7.00
2023-03-07T10:29:47.068Z,6.30
2023-03-07T10:32:37.128Z,6.20
2023-03-07T10:35:11.396Z,8.90
2023-03-07T10:37:43.976Z,7.60
2023-03-07T10:43:02.010Z,7.40
2023-03-07T10:45:33.516Z,5.10
2023-03-07T10:48:08.265Z,12.80
2023-03-07T10:50:55.537Z,15.10
2023-03-07T10:53:30.949Z,6.10
2023-03-07T10:56:18.815Z,5.40
2023-03-07T10:59:09.858Z,6.20
2023-03-07T11:01:51.755Z,6.10
2023-03-07T11:04:27.485Z,5.70
2023-03-07T11:07:01.907Z,4.10
2023-03-07T11:09:35.663Z,6.00
2023-03-07T11:12:06.639Z,4.20
2023-03-07T11:14:48.436Z,3.80
2023-03-07T11:17:43.379Z,6.30
2023-03-07T11:20:25.492Z,6.20
2023-03-07T11:23:15.018Z,4.70
2023-03-07T11:25:43.446Z,5.50
2023-03-07T11:28:35.441Z,4.50
2023-03-07T11:31:24.766Z,4.30
2023-03-07T11:34:21.951Z,5.70
2023-03-07T11:36:57.513Z,4.50
2023-03-07T11:39:43.898Z,6.00
2023-03-07T11:42:23.123Z,4.70
2023-03-07T11:44:59.695Z,4.90
2023-03-07T11:47:36.478Z,4.30
2023-03-07T11:50:26.587Z,4.10
2023-03-07T11:53:28.499Z,6.00
2023-03-07T11:56:30.192Z,6.10
2023-03-07T11:59:35.766Z,5.40
2023-03-07T12:02:20.202Z,4.00
2023-03-07T12:05:11.310Z,6.00
2023-03-07T12:08:14.291Z,4.10
2023-03-07T12:10:51.391Z,5.60
2023-03-07T12:13:39.545Z,5.10
2023-03-07T12:16:10.511Z,4.70
2023-03-07T12:18:41.310Z,6.10
2023-03-07T12:21:41.166Z,3.40
2023-03-07T12:24:23.335Z,3.60
2023-03-07T12:27:02.804Z,3.50
2023-03-07T12:29:38.928Z,3.00
2023-03-07T12:32:20.190Z,4.00
2023-03-07T12:34:58.188Z,3.50
2023-03-07T12:37:45.791Z,4.90
2023-03-07T12:40:22.974Z,5.10
2023-03-07T12:42:58.674Z,4.00
2023-03-07T12:45:29.730Z,4.90
2023-03-07T12:48:08.977Z,4.80
2023-03-07T12:50:49.369Z,3.60
2023-03-07T12:53:22.626Z,5.70
2023-03-07T12:56:33.877Z,6.80
2023-03-07T12:59:12.887Z,7.00
2023-03-07T13:01:49.257Z,7.00
2023-03-07T13:04:31.213Z,4.50
2023-03-07T13:07:33.584Z,6.80
2023-03-07T13:10:06.642Z,8.20
2023-03-07T13:12:38.117Z,7.00
2023-03-07T13:15:27.865Z,20.00
2023-03-07T13:17:59.168Z,7.00
2023-03-07T13:20:27.246Z,4.00
2023-03-07T13:22:58.143Z,6.50
2023-03-07T13:25:27.423Z,5.50
2023-03-07T13:27:57.889Z,7.00
2023-03-07T13:30:30.693Z,6.30
2023-03-07T13:33:26.852Z,5.00
2023-03-07T13:35:57.065Z,6.70
2023-03-07T13:38:28.023Z,6.90
2023-03-07T13:41:06.839Z,5.20
2023-03-07T13:43:43.972Z,7.40
2023-03-07T13:46:24.256Z,6.10
2023-03-07T13:48:52.380Z,7.50
2023-03-07T13:51:21.726Z,6.90
2023-03-07T13:53:53.335Z,5.10
2023-03-07T13:56:26.399Z,6.30
2023-03-07T13:59:09.968Z,5.20
2023-03-07T14:01:59.204Z,5.60
2023-03-07T14:04:50.006Z,6.50
2023-03-07T14:07:29.863Z,5.70
2023-03-07T14:10:19.695Z,4.70
2023-03-07T14:13:05.851Z,5.20
2023-03-07T14:15:40.759Z,8.70
2023-03-07T14:18:37.932Z,8.60
2023-03-07T14:21:26.695Z,7.60
2023-03-07T14:24:50.119Z,22.30
2023-03-07T14:27:18.340Z,9.70
2023-03-07T14:29:52.098Z,15.40
2023-03-07T14:32:25.609Z,7.10
2023-03-07T14:34:53.848Z,6.60
2023-03-07T14:37:27.776Z,10.30
2023-03-07T14:39:59.056Z,6.60
2023-03-07T14:43:02.177Z,5.00
2023-03-07T14:45:49.828Z,7.20
2023-03-07T14:49:05.987Z,10.20
2023-03-07T14:51:38.086Z,8.80
2023-03-07T14:54:13.979Z,8.40
2023-03-07T14:56:42.832Z,4.90
2023-03-07T14:59:26.120Z,7.30
2023-03-07T15:01:58.388Z,11.20
2023-03-07T15:04:33.184Z,5.90
2023-03-07T15:07:04.698Z,4.30
2023-03-07T15:09:35.348Z,8.10
2023-03-07T15:12:14.915Z,7.90
2023-03-07T15:14:51.033Z,4.90
2023-03-07T15:17:44.717Z,8.20
2023-03-07T15:20:23.477Z,7.30
2023-03-07T15:23:02.720Z,3.90
2023-03-07T15:25:32.265Z,10.90
2023-03-07T15:28:04.456Z,8.90
2023-03-07T15:30:35.508Z,9.40
2023-03-07T15:33:18.993Z,9.90
2023-03-07T15:36:05.799Z,8.20
2023-03-07T15:38:34.861Z,7.20
2023-03-07T15:41:03.101Z,13.40
2023-03-07T15:43:35.606Z,7.10
2023-03-07T15:46:15.594Z,7.70
2023-03-07T15:48:49.863Z,6.80
2023-03-07T15:51:21.474Z,7.10
2023-03-07T15:53:58.464Z,7.00
2023-03-07T15:56:30.809Z,4.80
2023-03-07T15:59:06.918Z,5.10
2023-03-07T16:01:35.029Z,12.20
2023-03-07T16:04:04.511Z,5.10
2023-03-07T16:06:43.817Z,4.90
2023-03-07T16:09:17.535Z,6.50
2023-03-07T16:11:46.450Z,5.40
2023-03-07T16:14:33.312Z,7.50
2023-03-07T16:17:11.827Z,7.90
2023-03-07T16:19:39.945Z,6.20
2023-03-07T16:22:16.674Z,5.50
2023-03-07T16:24:45.285Z,8.90
2023-03-07T16:27:22.241Z,7.90
2023-03-07T16:29:54.206Z,5.60
2023-03-07T16:32:23.171Z,8.10
2023-03-07T16:34:51.787Z,10.90
2023-03-07T16:37:20.940Z,14.10
2023-03-07T16:39:49.249Z,12.40
2023-03-07T16:42:22.970Z,10.80
2023-03-07T16:44:52.005Z,10.50
2023-03-07T16:47:20.245Z,8.60
2023-03-07T16:49:49.050Z,6.30
2023-03-07T16:52:17.273Z,5.90
2023-03-07T16:54:45.442Z,13.10
2023-03-07T16:57:18.580Z,14.90
2023-03-07T16:59:49.118Z,11.80
2023-03-07T17:02:22.238Z,9.60
2023-03-07T17:04:50.441Z,17.10
2023-03-07T17:07:23.454Z,15.40
2023-03-07T17:09:51.554Z,14.00
2023-03-07T17:12:23.493Z,13.10
2023-03-07T17:14:52.208Z,20.20
2023-03-07T17:17:30.399Z,11.50
2023-03-07T17:20:08.257Z,14.60
2023-03-07T17:22:37.281Z,11.10
2023-03-07T17:25:05.871Z,15.40
2023-03-07T17:27:37.439Z,14.00
2023-03-07T17:30:06.506Z,15.60
2023-03-07T17:32:35.284Z,15.40
2023-03-07T17:35:03.616Z,12.90
2023-03-07T17:37:31.722Z,8.60
2023-03-07T17:40:00.686Z,6.60
2023-03-07T17:42:28.964Z,10.90
2023-03-07T17:44:57.135Z,12.20
2023-03-07T17:47:25.479Z,8.10
2023-03-07T17:49:53.606Z,12.30
2023-03-07T17:52:23.496Z,7.70
2023-03-07T17:54:54.359Z,11.80
2023-03-07T17:57:23.500Z,12.30
2023-03-07T17:59:52.068Z,13.20
2023-03-07T18:02:20.903Z,12.80
2023-03-07T18:04:49.068Z,12.80
2023-03-07T18:07:18.489Z,12.40
2023-03-07T18:09:53.501Z,14.90
2023-03-07T18:12:28.431Z,16.60
2023-03-07T18:14:56.834Z,15.80
2023-03-07T18:17:31.382Z,13.80
2023-03-07T18:20:11.151Z,14.80
2023-03-07T18:25:11.195Z,9.10
2023-03-07T18:27:39.549Z,5.60
2023-03-07T18:30:08.935Z,14.70
2023-03-07T18:32:37.215Z,10.00
2023-03-07T18:35:06.654Z,13.10
2023-03-07T18:37:35.074Z,11.60
2023-03-07T18:40:04.575Z,11.90
2023-03-07T18:42:33.288Z,9.40
2023-03-07T18:45:01.625Z,9.30
2023-03-07T18:47:32.000Z,12.70
2023-03-07T18:50:02.758Z,10.00
2023-03-07T18:52:31.734Z,10.50
2023-03-07T18:55:00.094Z,12.50
2023-03-07T18:57:28.431Z,15.50
2023-03-07T18:59:56.613Z,14.00
2023-03-07T19:02:24.884Z,8.80
2023-03-07T19:04:54.325Z,14.40
2023-03-07T19:07:24.446Z,12.90
2023-03-07T19:09:53.759Z,12.50
2023-03-07T19:12:22.220Z,11.70
2023-03-07T19:14:50.421Z,12.90
2023-03-07T19:17:18.660Z,11.40
2023-03-07T19:19:48.471Z,12.50
2023-03-07T19:22:21.566Z,7.50
2023-03-07T19:24:51.216Z,5.90
2023-03-07T19:27:20.492Z,11.50
2023-03-07T19:29:51.214Z,11.60
2023-03-07T19:32:19.709Z,11.50
2023-03-07T19:34:50.924Z,10.20
2023-03-07T19:37:19.055Z,10.70
2023-03-07T19:39:51.347Z,7.90
2023-03-07T19:42:20.937Z,12.40
2023-03-07T19:44:50.384Z,6.20
2023-03-07T22:02:56.288Z,13.00
2023-03-07T22:05:23.633Z,27.70
2023-03-07T22:07:51.380Z,29.00
2023-03-07T22:10:18.917Z,23.20
2023-03-07T22:12:45.838Z,26.00
2023-03-07T22:15:13.093Z,15.60
2023-03-07T22:17:40.405Z,18.70
2023-03-07T22:20:10.348Z,28.40
2023-03-07T22:22:37.559Z,31.40
2023-03-07T22:25:05.078Z,28.30
2023-03-07T22:27:32.159Z,22.90
2023-03-07T22:29:59.407Z,21.70
2023-03-07T22:32:26.572Z,31.50
2023-03-07T22:34:53.805Z,18.70
2023-03-07T22:37:20.958Z,25.50
2023-03-07T22:39:47.923Z,37.50
2023-03-07T22:42:14.972Z,35.20
2023-03-07T22:44:42.499Z,23.90
2023-03-07T22:47:12.009Z,35.50
2023-03-07T22:49:39.007Z,34.30
2023-03-07T22:52:06.066Z,34.10
2023-03-07T22:54:35.466Z,34.70
2023-03-07T22:57:02.813Z,36.40
2023-03-07T22:59:30.688Z,34.90
2023-03-07T23:01:57.672Z,36.00
2023-03-07T23:04:24.862Z,36.30
2023-03-07T23:06:52.794Z,32.60
2023-03-07T23:09:21.001Z,32.90
2023-03-07T23:11:48.102Z,31.00
2023-03-07T23:14:15.634Z,31.40
2023-03-07T23:16:42.758Z,24.00
2023-03-07T23:19:09.825Z,75.30
2023-03-07T23:21:37.214Z,29.00
2023-03-07T23:24:04.590Z,16.60
2023-03-07T23:26:34.573Z,22.10
2023-03-07T23:29:02.557Z,22.40
2023-03-07T23:31:35.858Z,24.30
2023-03-07T23:34:08.608Z,37.30
2023-03-07T23:36:35.725Z,33.20
2023-03-07T23:39:03.259Z,33.30
2023-03-07T23:41:31.564Z,35.10
2023-03-07T23:44:00.375Z,31.80
2023-03-07T23:46:28.827Z,23.00
2023-03-07T23:48:57.209Z,34.20
2023-03-07T23:51:24.336Z,34.50
2023-03-07T23:53:51.289Z,32.90
2023-03-07T23:56:18.630Z,20.00
2023-03-07T23:58:49.588Z,31.60
